createdAt,value
2022-08-31T00:00:30.571Z,2.93
2022-08-31T00:03:16.665Z,3.17
2022-08-31T00:05:43.891Z,3.00
2022-08-31T00:08:11.059Z,3.20
2022-08-31T00:10:41.348Z,3.10
2022-08-31T00:13:10.859Z,2.97
2022-08-31T00:15:38.078Z,2.53
2022-08-31T00:18:05.553Z,2.50
2022-08-31T00:20:34.700Z,2.80
2022-08-31T00:23:03.302Z,2.50
2022-08-31T00:25:30.728Z,2.60
2022-08-31T00:27:57.916Z,2.33
2022-08-31T00:30:25.066Z,2.90
2022-08-31T00:32:52.277Z,2.57
2022-08-31T00:35:19.770Z,2.63
2022-08-31T00:37:46.917Z,2.30
2022-08-31T00:40:14.734Z,2.70
2022-08-31T00:42:42.068Z,2.43
2022-08-31T00:45:10.213Z,2.73
2022-08-31T00:47:37.514Z,2.63
2022-08-31T00:50:06.171Z,2.50
2022-08-31T00:52:37.957Z,2.60
2022-08-31T00:55:08.594Z,2.37
2022-08-31T00:57:37.190Z,2.40
2022-08-31T01:00:07.354Z,2.50
2022-08-31T01:02:34.572Z,2.60
2022-08-31T01:05:01.777Z,2.07
2022-08-31T01:07:29.473Z,2.40
2022-08-31T01:09:57.272Z,2.60
2022-08-31T01:12:25.017Z,2.23
2022-08-31T01:14:53.541Z,2.37
2022-08-31T01:17:21.360Z,2.43
2022-08-31T01:19:57.334Z,2.10
2022-08-31T01:22:31.286Z,2.43
2022-08-31T01:24:59.607Z,2.63
2022-08-31T01:27:29.639Z,2.43
2022-08-31T01:30:00.204Z,2.47
2022-08-31T01:32:27.535Z,2.57
2022-08-31T01:34:54.666Z,2.60
2022-08-31T01:37:29.523Z,2.80
2022-08-31T01:39:57.466Z,2.33
2022-08-31T01:42:32.891Z,2.50
2022-08-31T01:45:01.292Z,2.70
2022-08-31T01:47:28.410Z,2.50
2022-08-31T01:49:57.518Z,2.67
2022-08-31T01:52:27.853Z,2.47
2022-08-31T01:54:55.289Z,2.90
2022-08-31T01:57:33.487Z,2.40
2022-08-31T02:00:02.691Z,2.87
2022-08-31T02:02:29.852Z,2.80
2022-08-31T02:04:57.148Z,2.40
2022-08-31T02:07:25.363Z,2.70
2022-08-31T02:09:53.748Z,2.80
2022-08-31T02:12:20.879Z,2.87
2022-08-31T02:14:48.053Z,2.73
2022-08-31T02:17:15.162Z,2.47
2022-08-31T02:19:42.357Z,2.70
2022-08-31T02:22:09.480Z,2.40
2022-08-31T02:24:36.724Z,2.37
2022-08-31T02:27:04.049Z,2.80
2022-08-31T02:29:31.208Z,2.40
2022-08-31T02:31:58.638Z,2.63
2022-08-31T02:34:25.784Z,2.73
2022-08-31T02:36:52.917Z,2.60
2022-08-31T02:39:20.026Z,2.37
2022-08-31T02:41:47.519Z,2.50
2022-08-31T02:44:14.719Z,2.60
2022-08-31T02:46:41.913Z,2.40
2022-08-31T02:49:09.105Z,2.50
2022-08-31T02:51:39.515Z,2.60
2022-08-31T02:54:06.760Z,2.93
2022-08-31T02:56:33.871Z,2.47
2022-08-31T02:59:00.997Z,2.63
2022-08-31T03:01:28.169Z,2.50
2022-08-31T03:03:55.403Z,2.60
2022-08-31T03:06:22.825Z,2.87
2022-08-31T03:08:50.549Z,2.87
2022-08-31T03:11:18.144Z,2.80
2022-08-31T03:13:45.551Z,2.70
2022-08-31T03:16:14.286Z,2.50
2022-08-31T03:18:41.500Z,2.57
2022-08-31T03:21:08.794Z,2.57
2022-08-31T03:23:36.036Z,2.73
2022-08-31T03:26:05.461Z,2.90
2022-08-31T03:28:33.602Z,2.87
2022-08-31T03:31:00.805Z,2.57
2022-08-31T03:33:27.918Z,2.80
2022-08-31T03:35:55.043Z,2.80
2022-08-31T03:38:22.160Z,2.80
2022-08-31T03:40:50.922Z,2.70
2022-08-31T03:43:18.325Z,2.40
2022-08-31T03:45:45.580Z,2.43
2022-08-31T03:48:13.269Z,2.57
2022-08-31T03:50:41.288Z,2.47
2022-08-31T03:53:09.053Z,2.67
2022-08-31T03:55:37.355Z,2.70
2022-08-31T03:58:05.334Z,2.77
2022-08-31T04:00:33.707Z,2.80
2022-08-31T04:03:01.707Z,2.90
2022-08-31T04:05:34.101Z,2.80
2022-08-31T04:08:01.232Z,2.60
2022-08-31T04:10:28.383Z,2.80
2022-08-31T04:12:55.575Z,2.40
2022-08-31T04:15:22.953Z,2.70
2022-08-31T04:17:55.813Z,2.47
2022-08-31T04:20:29.526Z,2.80
2022-08-31T04:22:57.253Z,2.83
2022-08-31T04:25:24.454Z,2.60
2022-08-31T04:27:54.207Z,2.63
2022-08-31T04:30:21.794Z,2.77
2022-08-31T04:32:49.255Z,2.80
2022-08-31T04:35:16.595Z,3.00
2022-08-31T04:37:46.690Z,2.50
2022-08-31T04:40:19.755Z,2.47
2022-08-31T04:42:48.137Z,2.67
2022-08-31T04:45:16.032Z,2.50
2022-08-31T04:47:43.702Z,2.60
2022-08-31T04:50:11.768Z,2.50
2022-08-31T04:52:38.962Z,2.87
2022-08-31T04:55:07.646Z,2.80
2022-08-31T04:57:36.166Z,2.50
2022-08-31T05:00:05.172Z,2.90
2022-08-31T05:02:33.434Z,3.30
2022-08-31T05:05:01.437Z,2.93
2022-08-31T05:07:28.797Z,2.80
2022-08-31T05:09:55.925Z,2.83
2022-08-31T05:12:23.124Z,2.67
2022-08-31T05:14:51.287Z,2.70
2022-08-31T05:17:18.514Z,2.60
2022-08-31T05:19:45.640Z,3.20
2022-08-31T05:22:12.878Z,3.40
2022-08-31T05:24:39.988Z,2.77
2022-08-31T05:27:07.209Z,2.80
2022-08-31T05:29:34.399Z,2.80
2022-08-31T05:32:01.631Z,2.83
2022-08-31T05:34:28.824Z,2.70
2022-08-31T05:36:56.984Z,3.00
2022-08-31T05:39:24.573Z,2.97
2022-08-31T05:41:52.201Z,2.90
2022-08-31T05:44:21.176Z,2.90
2022-08-31T05:46:54.656Z,2.90
2022-08-31T05:49:28.582Z,3.10
2022-08-31T05:51:57.099Z,3.07
2022-08-31T05:54:24.294Z,3.23
2022-08-31T05:56:51.395Z,3.50
2022-08-31T05:59:18.672Z,3.40
2022-08-31T06:01:46.325Z,2.97
2022-08-31T06:04:13.577Z,3.13
2022-08-31T06:06:41.246Z,2.40
2022-08-31T06:09:09.254Z,3.20
2022-08-31T06:11:40.514Z,3.00
2022-08-31T06:14:07.677Z,3.00
2022-08-31T06:16:36.065Z,3.10
2022-08-31T06:19:06.983Z,2.77
2022-08-31T06:21:35.498Z,3.20
2022-08-31T06:24:03.970Z,3.20
2022-08-31T06:26:32.913Z,2.83
2022-08-31T06:29:01.568Z,3.10
2022-08-31T06:31:33.938Z,2.80
2022-08-31T06:34:01.642Z,2.90
2022-08-31T06:36:29.529Z,3.10
2022-08-31T06:38:58.914Z,3.03
2022-08-31T06:41:27.510Z,2.63
2022-08-31T06:43:55.287Z,3.20
2022-08-31T06:46:23.607Z,3.13
2022-08-31T06:48:53.977Z,3.07
2022-08-31T06:51:21.370Z,2.90
2022-08-31T06:53:48.539Z,3.00
2022-08-31T06:56:20.979Z,2.77
2022-08-31T06:58:53.538Z,2.90
2022-08-31T07:01:35.764Z,2.90
2022-08-31T07:04:05.483Z,2.67
2022-08-31T07:06:34.963Z,2.77
2022-08-31T07:09:03.928Z,2.60
2022-08-31T07:11:33.822Z,2.73
2022-08-31T07:14:01.853Z,3.03
2022-08-31T07:16:29.551Z,2.87
2022-08-31T07:18:59.135Z,2.77
2022-08-31T07:21:27.799Z,3.00
2022-08-31T07:23:55.420Z,2.90
2022-08-31T07:26:25.689Z,2.80
2022-08-31T07:28:54.280Z,2.63
2022-08-31T07:31:26.206Z,2.73
2022-08-31T07:33:55.844Z,2.70
2022-08-31T07:36:24.605Z,2.87
2022-08-31T07:39:10.617Z,2.70
2022-08-31T07:41:56.621Z,2.50
2022-08-31T07:44:24.586Z,2.40
2022-08-31T07:46:55.223Z,2.67
2022-08-31T07:49:22.784Z,2.40
2022-08-31T07:51:51.048Z,2.53
2022-08-31T07:54:20.600Z,2.37
2022-08-31T07:56:51.562Z,2.40
2022-08-31T07:59:19.801Z,2.50
2022-08-31T08:01:47.670Z,2.47
2022-08-31T08:04:18.491Z,2.40
2022-08-31T08:06:45.663Z,2.73
2022-08-31T08:09:24.568Z,2.60
2022-08-31T08:11:55.344Z,2.30
2022-08-31T08:14:30.346Z,2.43
2022-08-31T08:16:57.635Z,2.57
2022-08-31T08:19:24.925Z,2.40
2022-08-31T08:21:52.123Z,2.70
2022-08-31T08:24:19.622Z,2.57
2022-08-31T08:26:50.984Z,2.73
2022-08-31T08:29:22.176Z,2.77
2022-08-31T08:31:52.139Z,2.70
2022-08-31T08:34:20.025Z,2.77
2022-08-31T08:36:47.304Z,2.30
2022-08-31T08:39:14.695Z,2.50
2022-08-31T08:41:42.928Z,2.57
2022-08-31T08:44:16.790Z,2.47
2022-08-31T08:46:47.930Z,2.70
2022-08-31T08:49:20.533Z,2.50
2022-08-31T08:51:49.655Z,2.37
2022-08-31T08:54:22.448Z,2.43
2022-08-31T08:56:49.684Z,2.53
2022-08-31T08:59:19.831Z,2.70
2022-08-31T09:01:48.643Z,2.60
2022-08-31T09:04:30.865Z,2.40
2022-08-31T09:07:17.718Z,2.60
2022-08-31T09:09:57.280Z,2.60
2022-08-31T09:12:36.430Z,2.50
2022-08-31T09:15:36.467Z,2.10
2022-08-31T09:18:03.915Z,2.63
2022-08-31T09:20:33.799Z,2.30
2022-08-31T09:23:01.503Z,2.50
2022-08-31T09:25:32.677Z,2.70
2022-08-31T09:28:01.415Z,2.47
2022-08-31T09:30:51.546Z,2.40
2022-08-31T09:33:18.938Z,2.33
2022-08-31T09:35:46.563Z,2.13
2022-08-31T09:38:25.985Z,2.47
2022-08-31T09:40:53.290Z,2.30
2022-08-31T09:43:25.162Z,2.27
2022-08-31T09:45:56.443Z,2.43
2022-08-31T09:48:44.036Z,2.77
2022-08-31T09:51:12.535Z,2.53
2022-08-31T09:54:01.688Z,2.20
2022-08-31T09:56:29.668Z,2.53
2022-08-31T09:59:05.872Z,2.60
2022-08-31T10:01:45.332Z,2.60
2022-08-31T10:04:19.236Z,2.70
2022-08-31T10:06:53.140Z,2.40
2022-08-31T10:09:24.062Z,2.80
2022-08-31T10:11:54.256Z,2.53
2022-08-31T10:14:24.628Z,2.53
2022-08-31T10:16:54.336Z,2.60
2022-08-31T10:19:40.093Z,2.50
2022-08-31T10:22:11.545Z,2.43
2022-08-31T10:24:47.275Z,2.40
2022-08-31T10:27:18.940Z,2.30
2022-08-31T10:29:53.258Z,2.30
2022-08-31T10:32:35.310Z,2.40
2022-08-31T10:35:21.343Z,2.30
2022-08-31T10:37:57.880Z,2.47
2022-08-31T10:40:32.141Z,2.43
2022-08-31T10:43:17.646Z,2.10
2022-08-31T10:45:49.020Z,2.30
2022-08-31T10:48:17.435Z,1.90
2022-08-31T10:50:47.287Z,2.30
2022-08-31T10:53:39.721Z,2.00
2022-08-31T10:56:26.424Z,1.80
2022-08-31T10:59:06.194Z,1.80
2022-08-31T11:01:47.230Z,1.90
2022-08-31T11:04:34.433Z,1.90
2022-08-31T11:07:07.860Z,1.90
2022-08-31T11:09:41.048Z,1.80
2022-08-31T11:12:13.558Z,1.80
2022-08-31T11:15:09.590Z,2.53
2022-08-31T11:17:55.547Z,1.70
2022-08-31T11:20:22.693Z,1.60
2022-08-31T11:22:52.651Z,1.47
2022-08-31T11:25:39.092Z,1.57
2022-08-31T11:28:18.867Z,1.60
2022-08-31T11:30:51.066Z,1.40
2022-08-31T11:33:22.537Z,1.30
2022-08-31T11:35:49.624Z,1.20
2022-08-31T11:38:36.199Z,1.23
2022-08-31T11:41:03.951Z,1.27
2022-08-31T11:43:33.910Z,1.10
2022-08-31T11:46:33.499Z,1.20
2022-08-31T11:49:00.915Z,1.07
2022-08-31T11:51:37.353Z,1.40
2022-08-31T11:54:12.269Z,1.40
2022-08-31T11:56:40.349Z,1.53
2022-08-31T11:59:24.659Z,1.53
2022-08-31T12:01:51.996Z,1.37
2022-08-31T12:04:41.941Z,1.30
2022-08-31T12:07:11.192Z,1.60
2022-08-31T12:09:55.849Z,1.10
2022-08-31T12:12:29.189Z,1.23
2022-08-31T12:15:14.842Z,1.70
2022-08-31T12:18:03.644Z,1.60
2022-08-31T12:21:08.151Z,1.67
2022-08-31T12:23:38.501Z,1.70
2022-08-31T12:26:24.435Z,1.43
2022-08-31T12:29:10.742Z,1.47
2022-08-31T12:31:38.870Z,1.40
2022-08-31T12:34:08.268Z,1.37
2022-08-31T12:36:36.767Z,1.40
2022-08-31T12:39:13.041Z,1.10
2022-08-31T12:41:43.412Z,1.30
2022-08-31T12:44:14.291Z,1.60
2022-08-31T12:46:47.780Z,1.00
2022-08-31T12:49:21.808Z,0.97
2022-08-31T12:52:12.333Z,1.00
2022-08-31T12:54:39.444Z,0.93
2022-08-31T12:57:27.211Z,1.20
2022-08-31T13:00:02.147Z,1.00
2022-08-31T13:02:33.014Z,1.23
2022-08-31T13:05:00.944Z,1.10
2022-08-31T13:07:33.010Z,1.00
2022-08-31T13:10:05.016Z,1.07
2022-08-31T13:12:32.209Z,1.20
2022-08-31T13:14:59.458Z,1.20
2022-08-31T13:17:26.641Z,1.07
2022-08-31T13:19:55.247Z,1.13
2022-08-31T13:22:54.117Z,1.07
2022-08-31T13:25:36.121Z,1.13
2022-08-31T13:28:13.963Z,1.20
2022-08-31T13:30:50.350Z,1.37
2022-08-31T13:33:28.849Z,1.30
2022-08-31T13:35:57.853Z,1.53
2022-08-31T13:38:40.321Z,1.50
2022-08-31T13:41:10.153Z,1.60
2022-08-31T13:43:38.072Z,1.40
2022-08-31T13:46:05.433Z,1.37
2022-08-31T13:48:38.124Z,1.50
2022-08-31T13:51:13.020Z,1.30
2022-08-31T13:53:55.371Z,1.23
2022-08-31T13:56:42.233Z,1.57
2022-08-31T13:59:17.000Z,1.50
2022-08-31T14:01:51.591Z,1.60
2022-08-31T14:04:44.127Z,1.60
2022-08-31T14:07:16.982Z,1.37
2022-08-31T14:09:44.957Z,1.80
2022-08-31T14:12:21.898Z,1.70
2022-08-31T14:14:49.415Z,1.30
2022-08-31T14:17:17.222Z,1.40
2022-08-31T14:19:46.519Z,1.30
2022-08-31T14:22:26.391Z,1.40
2022-08-31T14:24:56.967Z,1.50
2022-08-31T14:27:24.548Z,1.50
2022-08-31T14:29:52.942Z,1.43
2022-08-31T14:32:22.010Z,1.60
2022-08-31T14:34:49.321Z,1.37
2022-08-31T14:37:22.202Z,1.40
2022-08-31T14:39:50.614Z,1.40
2022-08-31T14:42:18.690Z,1.40
2022-08-31T14:45:06.069Z,1.50
2022-08-31T14:47:36.080Z,1.50
2022-08-31T14:50:07.515Z,1.30
2022-08-31T14:52:45.773Z,1.20
2022-08-31T14:55:14.604Z,1.23
2022-08-31T14:57:45.643Z,1.10
2022-08-31T15:00:18.767Z,1.40
2022-08-31T15:02:49.701Z,1.50
2022-08-31T15:05:18.078Z,1.60
2022-08-31T15:07:46.935Z,1.30
2022-08-31T15:10:14.101Z,1.50
2022-08-31T15:12:41.455Z,1.43
2022-08-31T15:15:09.826Z,1.43
2022-08-31T15:17:39.549Z,1.40
2022-08-31T15:20:07.247Z,1.40
2022-08-31T15:22:40.519Z,1.33
2022-08-31T15:25:11.945Z,1.50
2022-08-31T15:27:43.929Z,1.50
2022-08-31T15:30:15.925Z,1.47
2022-08-31T15:32:45.236Z,1.50
2022-08-31T15:35:17.738Z,1.47
2022-08-31T15:37:52.113Z,1.43
2022-08-31T15:40:21.272Z,1.40
2022-08-31T15:42:50.251Z,1.30
2022-08-31T15:45:17.551Z,1.20
2022-08-31T15:48:03.256Z,1.30
2022-08-31T15:50:31.371Z,1.30
2022-08-31T15:53:00.976Z,1.27
2022-08-31T15:55:28.171Z,1.43
2022-08-31T15:57:58.401Z,1.33
2022-08-31T16:00:32.352Z,1.40
2022-08-31T16:03:02.044Z,1.30
2022-08-31T16:05:33.032Z,1.10
2022-08-31T16:08:00.499Z,1.20
2022-08-31T16:10:28.170Z,1.13
2022-08-31T16:12:56.435Z,1.10
2022-08-31T16:15:25.033Z,1.10
2022-08-31T16:17:57.509Z,1.30
2022-08-31T16:20:27.315Z,1.27
2022-08-31T16:22:54.600Z,1.00
2022-08-31T16:25:21.767Z,1.43
2022-08-31T16:27:48.893Z,1.10
2022-08-31T16:30:16.034Z,1.13
2022-08-31T16:32:43.347Z,1.20
2022-08-31T16:35:10.916Z,1.20
2022-08-31T16:37:38.061Z,1.00
2022-08-31T16:40:05.639Z,1.30
2022-08-31T16:42:32.830Z,1.20
2022-08-31T16:45:02.314Z,1.27
2022-08-31T16:47:30.138Z,1.23
2022-08-31T16:49:58.351Z,1.27
2022-08-31T16:52:28.247Z,1.03
2022-08-31T16:54:59.232Z,1.30
2022-08-31T16:57:28.311Z,1.13
2022-08-31T16:59:56.628Z,1.30
2022-08-31T17:02:24.721Z,1.20
2022-08-31T17:04:53.710Z,1.07
2022-08-31T17:07:21.855Z,1.03
2022-08-31T17:09:49.109Z,1.00
2022-08-31T17:12:21.370Z,1.13
2022-08-31T17:14:52.415Z,1.37
2022-08-31T17:17:22.197Z,1.13
2022-08-31T17:19:49.666Z,1.30
2022-08-31T17:22:25.602Z,1.30
2022-08-31T17:24:56.322Z,1.43
2022-08-31T17:27:24.129Z,1.40
2022-08-31T17:29:52.777Z,1.30
2022-08-31T17:32:21.256Z,1.40
2022-08-31T17:34:51.665Z,1.40
2022-08-31T17:37:21.335Z,1.40
2022-08-31T17:39:53.015Z,1.60
2022-08-31T17:42:21.801Z,1.30
2022-08-31T17:44:52.075Z,1.50
2022-08-31T17:47:20.301Z,1.20
2022-08-31T17:49:47.476Z,1.50
2022-08-31T17:52:14.655Z,1.50
2022-08-31T17:54:43.223Z,1.50
2022-08-31T17:57:12.301Z,1.60
2022-08-31T17:59:40.805Z,1.20
2022-08-31T18:02:13.043Z,1.37
2022-08-31T18:04:40.792Z,1.50
2022-08-31T18:07:10.400Z,1.20
2022-08-31T18:09:40.294Z,1.40
2022-08-31T18:12:08.110Z,1.33
2022-08-31T18:14:38.030Z,1.70
2022-08-31T18:17:06.201Z,1.50
2022-08-31T18:19:33.995Z,1.33
2022-08-31T18:22:01.693Z,1.67
2022-08-31T18:24:29.191Z,1.40
2022-08-31T18:26:57.966Z,1.80
2022-08-31T18:29:26.721Z,1.27
2022-08-31T18:31:56.818Z,1.63
2022-08-31T18:34:24.994Z,1.40
2022-08-31T18:36:53.595Z,1.60
2022-08-31T18:39:47.623Z,1.40
2022-08-31T18:42:28.247Z,1.47
2022-08-31T18:45:14.328Z,1.97
2022-08-31T18:47:41.665Z,1.90
2022-08-31T18:50:08.961Z,2.00
2022-08-31T18:52:40.304Z,1.73
2022-08-31T18:55:13.140Z,1.60
2022-08-31T18:57:46.382Z,1.60
2022-08-31T19:00:16.484Z,1.30
2022-08-31T19:02:43.738Z,1.23
2022-08-31T19:05:11.848Z,1.50
2022-08-31T19:07:40.641Z,1.73
2022-08-31T19:10:12.825Z,1.57
2022-08-31T19:12:42.575Z,1.30
2022-08-31T19:15:10.726Z,1.70
2022-08-31T19:17:39.978Z,1.50
2022-08-31T19:20:10.216Z,1.70
2022-08-31T19:22:37.606Z,1.90
2022-08-31T19:25:07.051Z,1.63
2022-08-31T19:27:35.223Z,1.83
2022-08-31T19:30:05.881Z,2.00
2022-08-31T19:32:33.880Z,1.73
2022-08-31T19:35:01.035Z,1.43
2022-08-31T19:37:28.149Z,1.60
2022-08-31T19:39:55.338Z,1.63
2022-08-31T19:42:40.250Z,1.87
2022-08-31T19:45:24.906Z,1.50
2022-08-31T19:47:52.552Z,1.30
2022-08-31T19:50:19.866Z,1.60
2022-08-31T19:52:48.085Z,1.40
2022-08-31T19:55:15.242Z,1.60
2022-08-31T19:57:43.352Z,1.50
2022-08-31T20:00:11.690Z,1.70
2022-08-31T20:02:42.229Z,1.70
2022-08-31T20:05:09.715Z,1.60
2022-08-31T20:07:36.954Z,1.80
2022-08-31T20:10:04.796Z,1.80
2022-08-31T20:12:32.134Z,1.53
2022-08-31T20:14:59.250Z,1.70
2022-08-31T20:17:30.088Z,1.70
2022-08-31T20:19:59.907Z,1.53
2022-08-31T20:22:29.718Z,1.80
2022-08-31T20:25:00.722Z,1.87
2022-08-31T20:27:28.159Z,1.77
2022-08-31T20:29:56.833Z,1.60
2022-08-31T20:32:25.782Z,1.57
2022-08-31T20:34:55.881Z,1.67
2022-08-31T20:37:24.597Z,1.73
2022-08-31T20:39:52.061Z,1.60
2022-08-31T20:42:21.944Z,1.63
2022-08-31T20:44:49.176Z,1.70
2022-08-31T20:47:35.201Z,1.80
2022-08-31T20:50:03.473Z,1.60
2022-08-31T20:52:32.059Z,1.67
2022-08-31T20:55:01.624Z,2.07
2022-08-31T20:57:29.765Z,1.90
2022-08-31T20:59:56.961Z,2.20
2022-08-31T21:02:24.365Z,2.27
2022-08-31T21:04:51.608Z,2.57
2022-08-31T21:07:19.875Z,2.07
2022-08-31T21:09:47.456Z,2.13
2022-08-31T21:12:18.203Z,2.10
2022-08-31T21:14:45.705Z,1.90
2022-08-31T21:17:14.423Z,2.40
2022-08-31T21:19:41.888Z,2.20
2022-08-31T21:22:10.163Z,2.00
2022-08-31T21:24:38.251Z,2.00
2022-08-31T21:27:06.770Z,2.10
2022-08-31T21:29:35.462Z,1.80
2022-08-31T21:32:04.143Z,1.80
2022-08-31T21:34:31.605Z,2.07
2022-08-31T21:36:58.789Z,2.17
2022-08-31T21:39:25.959Z,2.10
2022-08-31T21:41:56.040Z,2.20
2022-08-31T21:44:24.430Z,2.07
2022-08-31T21:46:52.009Z,2.00
2022-08-31T21:49:19.343Z,2.40
2022-08-31T21:51:48.842Z,2.20
2022-08-31T21:54:17.211Z,2.03
2022-08-31T21:56:46.258Z,2.50
2022-08-31T21:59:14.266Z,2.10
2022-08-31T22:01:42.006Z,2.17
2022-08-31T22:04:09.957Z,2.47
2022-08-31T22:06:37.755Z,2.20
2022-08-31T22:09:09.428Z,2.23
2022-08-31T22:11:38.414Z,2.30
2022-08-31T22:14:07.770Z,2.13
2022-08-31T22:16:39.432Z,2.03
2022-08-31T22:19:13.211Z,2.10
2022-08-31T22:21:42.817Z,2.00
2022-08-31T22:24:11.710Z,2.63
2022-08-31T22:26:54.183Z,2.00
2022-08-31T22:29:23.757Z,2.20
2022-08-31T22:31:52.434Z,2.07
2022-08-31T22:34:21.069Z,1.70
2022-08-31T22:36:52.122Z,1.90
2022-08-31T22:39:23.482Z,1.90
2022-08-31T22:41:51.843Z,2.00
2022-08-31T22:44:20.103Z,1.83
2022-08-31T22:46:47.897Z,2.20
2022-08-31T22:49:15.136Z,1.80
2022-08-31T22:51:46.173Z,2.00
2022-08-31T22:54:14.027Z,2.10
2022-08-31T22:56:41.261Z,1.97
2022-08-31T22:59:10.345Z,1.87
2022-08-31T23:01:41.882Z,2.23
2022-08-31T23:04:10.698Z,2.23
2022-08-31T23:06:38.977Z,2.23
2022-08-31T23:09:07.945Z,2.00
2022-08-31T23:11:35.136Z,2.10
2022-08-31T23:14:07.313Z,2.33
2022-08-31T23:16:37.086Z,2.20
2022-08-31T23:19:12.010Z,2.00
2022-08-31T23:21:44.955Z,2.40
2022-08-31T23:24:13.589Z,2.20
2022-08-31T23:26:40.798Z,1.80
2022-08-31T23:29:09.316Z,2.10
2022-08-31T23:31:37.405Z,1.90
2022-08-31T23:34:09.767Z,2.10
2022-08-31T23:36:36.952Z,2.20
2022-08-31T23:39:04.890Z,2.20
2022-08-31T23:41:34.813Z,2.00
2022-08-31T23:44:07.888Z,1.90
2022-08-31T23:46:35.987Z,2.00
2022-08-31T23:49:05.318Z,1.90
2022-08-31T23:51:33.330Z,2.03
2022-08-31T23:54:01.208Z,2.07
2022-08-31T23:56:32.827Z,1.80
2022-08-31T23:59:03.373Z,2.03
